Time,TemperatureF,DewpointF,PressureIn,WindDirection,WindDirectionDegrees,WindSpeedMPH,WindSpeedGustMPH,Humidity,HourlyPrecipIn,Conditions,Clouds,dailyrainin,SolarRadiationWatts/m^2,SoftwareType,DateUTC
2013-05-04 00:02:00,48.7,43.5,30.30,WSW,244,0.0,2.0,82,0.00,,,0.00,0.0,meteohub,2013-05-04 07:02:00,
2013-05-04 00:07:00,48.6,43.9,30.30,WSW,244,0.0,2.0,84,0.00,,,0.00,0.0,meteohub,2013-05-04 07:07:00,
2013-05-04 00:12:00,48.2,43.5,30.29,WSW,244,0.0,3.0,84,0.00,,,0.00,0.0,meteohub,2013-05-04 07:12:00,
2013-05-04 00:17:00,48.0,43.3,30.30,WSW,244,0.0,3.0,84,0.00,,,0.00,0.0,meteohub,2013-05-04 07:17:00,
2013-05-04 00:22:00,47.8,43.2,30.30,WSW,244,0.0,2.0,84,0.00,,,0.00,0.0,meteohub,2013-05-04 07:22:00,
2013-05-04 00:27:00,47.7,43.3,30.30,WSW,244,0.0,2.0,85,0.00,,,0.00,0.0,meteohub,2013-05-04 07:27:00,
2013-05-04 00:32:00,47.7,43.3,30.30,WSW,244,0.0,2.0,85,0.00,,,0.00,0.0,meteohub,2013-05-04 07:32:00,
2013-05-04 00:37:00,47.5,43.2,30.30,WSW,244,2.0,2.0,85,0.00,,,0.00,0.0,meteohub,2013-05-04 07:37:00,
2013-05-04 00:42:00,47.3,43.0,30.30,WSW,244,0.0,4.0,85,0.00,,,0.00,0.0,meteohub,2013-05-04 07:42:00,
2013-05-04 00:47:00,47.1,42.8,30.30,WSW,244,0.0,4.0,85,0.00,,,0.00,0.0,meteohub,2013-05-04 07:47:00,
2013-05-04 00:52:00,46.9,42.6,30.30,WSW,244,3.0,4.0,85,0.00,,,0.00,0.0,meteohub,2013-05-04 07:52:00,
2013-05-04 00:57:00,46.9,43.0,30.30,WSW,244,1.0,3.0,86,0.00,,,0.00,0.0,meteohub,2013-05-04 07:57:00,
2013-05-04 01:02:00,46.8,42.8,30.30,WSW,244,0.0,4.0,86,0.00,,,0.00,0.0,meteohub,2013-05-04 08:02:00,
2013-05-04 01:07:00,46.8,42.8,30.30,WSW,244,0.0,4.0,86,0.00,,,0.00,0.0,meteohub,2013-05-04 08:07:00,
2013-05-04 01:12:00,46.8,42.8,30.30,WSW,244,1.0,4.0,86,0.00,,,0.00,0.0,meteohub,2013-05-04 08:12:00,
2013-05-04 01:17:00,46.8,42.8,30.30,WSW,244,0.0,3.0,86,0.00,,,0.00,0.0,meteohub,2013-05-04 08:17:00,
2013-05-04 01:22:00,46.8,42.8,30.30,WSW,244,3.0,3.0,86,0.00,,,0.00,0.0,meteohub,2013-05-04 08:22:00,
2013-05-04 01:27:00,46.8,42.4,30.30,WSW,244,2.0,3.0,85,0.00,,,0.00,0.0,meteohub,2013-05-04 08:27:00,
2013-05-04 01:32:00,46.8,42.4,30.29,WSW,244,3.0,4.0,85,0.00,,,0.00,0.0,meteohub,2013-05-04 08:32:00,
2013-05-04 01:37:00,46.6,42.3,30.29,WSW,244,0.0,4.0,85,0.00,,,0.00,0.0,meteohub,2013-05-04 08:37:00,
2013-05-04 01:42:00,46.8,42.4,30.29,WSW,244,4.0,5.0,85,0.00,,,0.00,0.0,meteohub,2013-05-04 08:42:00,
2013-05-04 01:47:00,47.1,41.4,30.29,North,355,5.0,6.0,80,0.00,,,0.00,0.0,meteohub,2013-05-04 08:47:00,
2013-05-04 01:52:00,48.9,41.0,30.29,NW,311,2.0,10.0,74,0.00,,,0.00,0.0,meteohub,2013-05-04 08:52:00,
2013-05-04 01:57:00,49.5,41.5,30.29,East,101,7.0,11.0,74,0.00,,,0.00,0.0,meteohub,2013-05-04 08:57:00,
2013-05-04 02:02:00,53.4,40.3,30.28,East,82,2.0,12.0,61,0.00,,,0.00,0.0,meteohub,2013-05-04 09:02:00,
2013-05-04 02:07:00,55.4,39.9,30.28,ESE,111,8.0,16.0,56,0.00,,,0.00,0.0,meteohub,2013-05-04 09:07:00,
2013-05-04 02:12:00,55.9,40.5,30.28,SSE,153,11.0,17.0,56,0.00,,,0.00,0.0,meteohub,2013-05-04 09:12:00,
2013-05-04 02:17:00,56.7,39.7,30.29,WSW,244,4.0,18.0,53,0.00,,,0.00,0.0,meteohub,2013-05-04 09:17:00,
2013-05-04 02:22:00,57.2,39.7,30.28,ESE,119,22.0,25.0,52,0.00,,,0.00,0.0,meteohub,2013-05-04 09:22:00,
2013-05-04 02:27:00,57.0,40.1,30.28,West,260,10.0,25.0,53,0.00,,,0.00,0.0,meteohub,2013-05-04 09:27:00,
2013-05-04 02:32:00,57.4,39.9,30.28,SE,128,12.0,27.0,52,0.00,,,0.00,0.0,meteohub,2013-05-04 09:32:00,
2013-05-04 02:37:00,57.0,39.6,30.28,SE,128,9.0,27.0,52,0.00,,,0.00,0.0,meteohub,2013-05-04 09:37:00,
2013-05-04 02:42:00,56.8,39.9,30.27,ESE,115,7.0,30.0,53,0.00,,,0.00,0.0,meteohub,2013-05-04 09:42:00,
2013-05-04 02:47:00,56.7,39.7,30.27,ESE,105,6.0,30.0,53,0.00,,,0.00,0.0,meteohub,2013-05-04 09:47:00,
2013-05-04 02:52:00,56.8,39.9,30.28,ENE,71,10.0,33.0,53,0.00,,,0.00,0.0,meteohub,2013-05-04 09:52:00,
2013-05-04 02:57:00,56.8,39.9,30.28,SSE,159,12.0,33.0,53,0.00,,,0.00,0.0,meteohub,2013-05-04 09:57:00,
2013-05-04 03:02:00,56.7,39.7,30.28,SE,137,18.0,33.0,53,0.00,,,0.00,0.0,meteohub,2013-05-04 10:02:00,
2013-05-04 03:07:00,56.7,39.7,30.28,ESE,108,11.0,33.0,53,0.00,,,0.00,0.0,meteohub,2013-05-04 10:07:00,
2013-05-04 03:12:00,56.3,39.4,30.28,SE,145,14.0,33.0,53,0.00,,,0.00,0.0,meteohub,2013-05-04 10:12:00,
2013-05-04 03:17:00,56.3,39.9,30.27,SE,136,24.0,33.0,54,0.00,,,0.00,0.0,meteohub,2013-05-04 10:17:00,
2013-05-04 03:22:00,56.5,40.1,30.28,ESE,109,22.0,33.0,54,0.00,,,0.00,0.0,meteohub,2013-05-04 10:22:00,
2013-05-04 03:27:00,56.5,39.6,30.28,ESE,122,13.0,33.0,53,0.00,,,0.00,0.0,meteohub,2013-05-04 10:27:00,
2013-05-04 03:32:00,56.3,39.4,30.28,South,171,13.0,33.0,53,0.00,,,0.00,0.0,meteohub,2013-05-04 10:32:00,
2013-05-04 03:37:00,56.5,39.6,30.27,SE,127,24.0,31.0,53,0.00,,,0.00,0.0,meteohub,2013-05-04 10:37:00,
2013-05-04 03:42:00,56.3,39.4,30.28,East,96,10.0,31.0,53,0.00,,,0.00,0.0,meteohub,2013-05-04 10:42:00,
2013-05-04 03:47:00,56.3,39.4,30.28,ESE,113,20.0,31.0,53,0.00,,,0.00,0.0,meteohub,2013-05-04 10:47:00,
2013-05-04 03:52:00,56.5,39.6,30.28,ESE,115,16.0,30.0,53,0.00,,,0.00,0.0,meteohub,2013-05-04 10:52:00,
2013-05-04 03:57:00,56.7,39.2,30.28,ESE,118,10.0,30.0,52,0.00,,,0.00,0.0,meteohub,2013-05-04 10:57:00,
2013-05-04 04:02:00,56.5,39.6,30.28,East,95,17.0,30.0,53,0.00,,,0.00,0.0,meteohub,2013-05-04 11:02:00,
2013-05-04 04:07:00,56.5,39.6,30.29,East,82,17.0,30.0,53,0.00,,,0.00,0.0,meteohub,2013-05-04 11:07:00,
2013-05-04 04:12:00,56.3,39.4,30.28,SSE,148,13.0,30.0,53,0.00,,,0.00,0.0,meteohub,2013-05-04 11:12:00,
2013-05-04 04:17:00,56.1,39.2,30.28,East,97,12.0,27.0,53,0.00,,,0.00,0.0,meteohub,2013-05-04 11:17:00,
2013-05-04 04:22:00,56.1,39.2,30.28,SSE,167,11.0,25.0,53,0.00,,,0.00,0.0,meteohub,2013-05-04 11:22:00,
2013-05-04 04:27:00,56.3,38.8,30.29,East,88,12.0,26.0,52,0.00,,,0.00,0.0,meteohub,2013-05-04 11:27:00,
2013-05-04 04:32:00,56.3,39.4,30.28,ESE,114,7.0,30.0,53,0.00,,,0.00,0.0,meteohub,2013-05-04 11:32:00,
2013-05-04 04:37:00,56.1,38.7,30.28,ESE,106,18.0,30.0,52,0.00,,,0.00,0.0,meteohub,2013-05-04 11:37:00,
2013-05-04 04:42:00,56.1,38.7,30.28,SE,140,22.0,30.0,52,0.00,,,0.00,0.0,meteohub,2013-05-04 11:42:00,
2013-05-04 04:47:00,56.3,38.8,30.28,SE,144,8.0,31.0,52,0.00,,,0.00,0.0,meteohub,2013-05-04 11:47:00,
2013-05-04 04:52:00,56.1,38.3,30.28,ESE,123,26.0,31.0,51,0.00,,,0.00,0.0,meteohub,2013-05-04 11:52:00,
2013-05-04 04:57:00,56.1,38.7,30.28,NE,52,5.0,31.0,52,0.00,,,0.00,0.0,meteohub,2013-05-04 11:57:00,
2013-05-04 05:02:00,55.9,38.5,30.29,ENE,75,22.0,29.0,52,0.00,,,0.00,0.0,meteohub,2013-05-04 12:02:00,
2013-05-04 05:07:00,55.8,38.8,30.28,South,185,8.0,28.0,53,0.00,,,0.00,0.0,meteohub,2013-05-04 12:07:00,
2013-05-04 05:12:00,55.9,38.5,30.28,SE,128,21.0,27.0,52,0.00,,,0.00,0.0,meteohub,2013-05-04 12:12:00,
2013-05-04 05:18:00,55.9,38.1,30.28,ENE,60,10.0,31.0,51,0.00,,,0.00,0.0,meteohub,2013-05-04 12:18:00,
2013-05-04 05:23:00,55.9,38.5,30.28,ESE,113,14.0,34.0,52,0.00,,,0.00,0.0,meteohub,2013-05-04 12:23:00,
2013-05-04 05:29:00,56.3,38.5,30.28,SSE,148,14.0,34.0,51,0.00,,,0.00,0.0,meteohub,2013-05-04 12:29:00,
2013-05-04 05:36:00,55.8,37.9,30.28,SSW,198,12.0,32.0,51,0.00,,,0.00,0.0,meteohub,2013-05-04 12:36:00,
2013-05-04 05:41:00,55.9,38.1,30.29,ESE,120,33.0,33.0,51,0.00,,,0.00,0.0,meteohub,2013-05-04 12:41:00,
2013-05-04 05:46:00,55.6,38.7,30.29,ESE,123,15.0,33.0,53,0.00,,,0.00,5.0,meteohub,2013-05-04 12:46:00,
2013-05-04 05:51:00,55.6,38.3,30.29,ESE,104,28.0,33.0,52,0.00,,,0.00,5.0,meteohub,2013-05-04 12:51:00,
2013-05-04 05:56:00,55.8,37.9,30.29,ESE,119,13.0,33.0,51,0.00,,,0.00,7.0,meteohub,2013-05-04 12:56:00,
2013-05-04 06:01:00,55.4,38.5,30.29,South,169,15.0,33.0,53,0.00,,,0.00,9.0,meteohub,2013-05-04 13:01:00,
2013-05-04 06:06:00,55.2,38.3,30.29,ESE,107,15.0,30.0,53,0.00,,,0.00,11.0,meteohub,2013-05-04 13:06:00,
2013-05-04 06:11:00,55.4,38.5,30.30,ENE,65,8.0,31.0,53,0.00,,,0.00,12.0,meteohub,2013-05-04 13:11:00,
2013-05-04 06:16:00,55.0,38.3,30.30,ESE,121,21.0,31.0,53,0.00,,,0.00,12.0,meteohub,2013-05-04 13:16:00,
2013-05-04 06:21:00,54.9,38.5,30.30,SSE,155,17.0,31.0,54,0.00,,,0.00,14.0,meteohub,2013-05-04 13:21:00,
2013-05-04 06:26:00,54.5,38.7,30.30,ESE,117,7.0,31.0,55,0.00,,,0.00,14.0,meteohub,2013-05-04 13:26:00,
2013-05-04 06:31:00,54.5,38.1,30.30,SE,144,10.0,31.0,54,0.00,,,0.00,16.0,meteohub,2013-05-04 13:31:00,
2013-05-04 06:36:00,55.0,38.3,30.30,SE,130,22.0,33.0,53,0.00,,,0.00,18.0,meteohub,2013-05-04 13:36:00,
2013-05-04 06:42:00,55.0,38.7,30.30,ESE,119,21.0,33.0,54,0.00,,,0.00,18.0,meteohub,2013-05-04 13:42:00,
2013-05-04 06:47:00,55.0,38.3,30.30,SE,125,14.0,33.0,53,0.00,,,0.00,19.0,meteohub,2013-05-04 13:47:00,
2013-05-04 06:52:00,55.0,38.7,30.31,ESE,102,26.0,30.0,54,0.00,,,0.00,19.0,meteohub,2013-05-04 13:52:00,
2013-05-04 06:57:00,54.9,38.5,30.30,ESE,107,23.0,30.0,54,0.00,,,0.00,21.0,meteohub,2013-05-04 13:57:00,
2013-05-04 07:02:00,55.0,38.7,30.30,NE,50,15.0,30.0,54,0.00,,,0.00,21.0,meteohub,2013-05-04 14:02:00,
2013-05-04 07:07:00,55.0,38.3,30.30,ESE,103,13.0,31.0,53,0.00,,,0.00,23.0,meteohub,2013-05-04 14:07:00,
2013-05-04 07:12:00,55.0,38.7,30.30,East,83,18.0,31.0,54,0.00,,,0.00,23.0,meteohub,2013-05-04 14:12:00,
2013-05-04 07:17:00,55.0,38.7,30.30,ESE,117,18.0,31.0,54,0.00,,,0.00,23.0,meteohub,2013-05-04 14:17:00,
2013-05-04 07:22:00,55.0,38.7,30.31,SE,128,17.0,30.0,54,0.00,,,0.00,25.0,meteohub,2013-05-04 14:22:00,
2013-05-04 07:27:00,54.9,39.0,30.30,ESE,123,17.0,32.0,55,0.00,,,0.00,25.0,meteohub,2013-05-04 14:27:00,
2013-05-04 07:32:00,54.9,39.0,30.30,SE,132,12.0,32.0,55,0.00,,,0.00,26.0,meteohub,2013-05-04 14:32:00,
2013-05-04 07:37:00,54.7,38.8,30.30,SE,133,6.0,32.0,55,0.00,,,0.00,26.0,meteohub,2013-05-04 14:37:00,
2013-05-04 07:42:00,54.7,38.8,30.30,SSW,195,12.0,33.0,55,0.00,,,0.00,28.0,meteohub,2013-05-04 14:42:00,
2013-05-04 07:47:00,55.0,38.3,30.30,ESE,122,17.0,33.0,53,0.00,,,0.00,30.0,meteohub,2013-05-04 14:47:00,
2013-05-04 07:52:00,55.0,38.7,30.29,ESE,121,18.0,31.0,54,0.00,,,0.00,32.0,meteohub,2013-05-04 14:52:00,
2013-05-04 07:57:00,55.2,38.8,30.30,ESE,109,18.0,32.0,54,0.00,,,0.00,32.0,meteohub,2013-05-04 14:57:00,
2013-05-04 08:02:00,55.6,38.7,30.30,ENE,67,12.0,33.0,53,0.00,,,0.00,33.0,meteohub,2013-05-04 15:02:00,
2013-05-04 08:07:00,55.8,38.8,30.30,ESE,120,20.0,33.0,53,0.00,,,0.00,33.0,meteohub,2013-05-04 15:07:00,
2013-05-04 08:12:00,55.9,39.0,30.30,ESE,113,10.0,30.0,53,0.00,,,0.00,35.0,meteohub,2013-05-04 15:12:00,
2013-05-04 08:17:00,55.9,39.0,30.30,East,86,12.0,30.0,53,0.00,,,0.00,37.0,meteohub,2013-05-04 15:17:00,
2013-05-04 08:22:00,55.9,39.0,30.30,East,97,23.0,30.0,53,0.00,,,0.00,241.0,meteohub,2013-05-04 15:22:00,
2013-05-04 08:27:00,56.5,39.0,30.30,East,89,7.0,24.0,52,0.00,,,0.00,408.0,meteohub,2013-05-04 15:27:00,
2013-05-04 08:32:00,56.7,39.2,30.30,SE,128,8.0,24.0,52,0.00,,,0.00,420.0,meteohub,2013-05-04 15:32:00,
2013-05-04 08:37:00,56.8,39.4,30.30,SE,131,14.0,23.0,52,0.00,,,0.00,436.0,meteohub,2013-05-04 15:37:00,
2013-05-04 08:42:00,57.2,39.7,30.30,SSW,202,6.0,22.0,52,0.00,,,0.00,448.0,meteohub,2013-05-04 15:42:00,
2013-05-04 08:47:00,57.4,39.9,30.30,ESE,123,9.0,21.0,52,0.00,,,0.00,461.0,meteohub,2013-05-04 15:47:00,
2013-05-04 08:52:00,57.9,40.5,30.30,South,171,11.0,20.0,52,0.00,,,0.00,475.0,meteohub,2013-05-04 15:52:00,
2013-05-04 08:57:00,58.5,39.9,30.29,NW,317,2.0,20.0,50,0.00,,,0.00,490.0,meteohub,2013-05-04 15:57:00,
2013-05-04 09:02:00,58.8,39.7,30.30,NE,45,2.0,17.0,49,0.00,,,0.00,504.0,meteohub,2013-05-04 16:02:00,
2013-05-04 09:07:00,59.2,40.1,30.29,SE,128,10.0,15.0,49,0.00,,,0.00,515.0,meteohub,2013-05-04 16:07:00,
2013-05-04 09:12:00,59.5,40.3,30.29,WSW,238,0.0,18.0,49,0.00,,,0.00,529.0,meteohub,2013-05-04 16:12:00,
2013-05-04 09:17:00,59.9,39.6,30.29,East,87,9.0,18.0,47,0.00,,,0.00,538.0,meteohub,2013-05-04 16:17:00,
2013-05-04 09:22:00,60.4,40.1,30.29,ESE,123,5.0,18.0,47,0.00,,,0.00,554.0,meteohub,2013-05-04 16:22:00,
2013-05-04 09:27:00,60.4,39.6,30.28,SSW,206,8.0,17.0,46,0.00,,,0.00,570.0,meteohub,2013-05-04 16:27:00,
2013-05-04 09:32:00,60.6,40.3,30.28,WSW,240,2.0,17.0,47,0.00,,,0.00,578.0,meteohub,2013-05-04 16:32:00,
2013-05-04 09:37:00,61.2,40.8,30.28,SE,133,6.0,15.0,47,0.00,,,0.00,592.0,meteohub,2013-05-04 16:37:00,
2013-05-04 09:42:00,62.1,41.5,30.27,SE,141,5.0,16.0,47,0.00,,,0.00,605.0,meteohub,2013-05-04 16:42:00,
2013-05-04 09:47:00,62.1,40.5,30.27,South,169,4.0,16.0,45,0.00,,,0.00,617.0,meteohub,2013-05-04 16:47:00,
2013-05-04 09:52:00,62.1,40.5,30.27,SSW,208,5.0,16.0,45,0.00,,,0.00,628.0,meteohub,2013-05-04 16:52:00,
2013-05-04 09:57:00,62.2,40.1,30.27,SE,146,3.0,14.0,44,0.00,,,0.00,640.0,meteohub,2013-05-04 16:57:00,
2013-05-04 10:02:00,62.8,40.5,30.27,South,188,6.0,14.0,44,0.00,,,0.00,654.0,meteohub,2013-05-04 17:02:00,
2013-05-04 10:07:00,63.1,40.8,30.27,SE,146,6.0,18.0,44,0.00,,,0.00,670.0,meteohub,2013-05-04 17:07:00,
2013-05-04 10:12:00,63.7,40.1,30.26,ESE,121,8.0,18.0,42,0.00,,,0.00,682.0,meteohub,2013-05-04 17:12:00,
2013-05-04 10:17:00,63.9,41.0,30.26,ESE,121,12.0,16.0,43,0.00,,,0.00,693.0,meteohub,2013-05-04 17:17:00,
2013-05-04 10:22:00,64.2,39.4,30.26,SSE,167,5.0,22.0,40,0.00,,,0.00,700.0,meteohub,2013-05-04 17:22:00,
2013-05-04 10:27:00,64.9,39.4,30.26,SE,136,6.0,22.0,39,0.00,,,0.00,708.0,meteohub,2013-05-04 17:27:00,
2013-05-04 10:32:00,65.1,40.3,30.26,SSE,161,3.0,22.0,40,0.00,,,0.00,715.0,meteohub,2013-05-04 17:32:00,
2013-05-04 10:37:00,65.5,40.5,30.25,ESE,119,10.0,22.0,40,0.00,,,0.00,724.0,meteohub,2013-05-04 17:37:00,
2013-05-04 10:42:00,66.0,39.7,30.25,SSE,158,4.0,22.0,38,0.00,,,0.00,733.0,meteohub,2013-05-04 17:42:00,
2013-05-04 10:47:00,66.4,39.4,30.25,SE,136,6.0,19.0,37,0.00,,,0.00,740.0,meteohub,2013-05-04 17:47:00,
2013-05-04 10:52:00,66.9,39.0,30.25,ENE,78,6.0,20.0,36,0.00,,,0.00,749.0,meteohub,2013-05-04 17:52:00,
2013-05-04 10:57:00,67.5,39.6,30.24,ESE,109,5.0,20.0,36,0.00,,,0.00,756.0,meteohub,2013-05-04 17:57:00,
2013-05-04 11:02:00,67.6,39.0,30.24,ENE,78,10.0,20.0,35,0.00,,,0.00,766.0,meteohub,2013-05-04 18:02:00,
2013-05-04 11:07:00,67.6,39.0,30.24,NE,51,6.0,18.0,35,0.00,,,0.00,773.0,meteohub,2013-05-04 18:07:00,
2013-05-04 11:12:00,68.2,41.5,30.24,ESE,123,9.0,18.0,38,0.00,,,0.00,782.0,meteohub,2013-05-04 18:12:00,
2013-05-04 11:17:00,68.4,38.1,30.23,ENE,77,11.0,17.0,33,0.00,,,0.00,789.0,meteohub,2013-05-04 18:17:00,
2013-05-04 11:22:00,68.9,39.4,30.23,ENE,69,5.0,17.0,34,0.00,,,0.00,795.0,meteohub,2013-05-04 18:22:00,
2013-05-04 11:27:00,69.4,41.4,30.23,ENE,71,6.0,16.0,36,0.00,,,0.00,803.0,meteohub,2013-05-04 18:27:00,
2013-05-04 11:32:00,69.8,39.4,30.22,ENE,65,10.0,16.0,33,0.00,,,0.00,809.0,meteohub,2013-05-04 18:32:00,
2013-05-04 11:37:00,70.3,38.3,30.22,ENE,75,10.0,14.0,31,0.00,,,0.00,814.0,meteohub,2013-05-04 18:37:00,
2013-05-04 11:42:00,70.9,37.9,30.22,East,82,9.0,14.0,30,0.00,,,0.00,821.0,meteohub,2013-05-04 18:42:00,
2013-05-04 11:47:00,71.1,38.1,30.22,ENE,69,7.0,14.0,30,0.00,,,0.00,826.0,meteohub,2013-05-04 18:47:00,
2013-05-04 11:52:00,71.4,37.6,30.22,ENE,58,5.0,13.0,29,0.00,,,0.00,831.0,meteohub,2013-05-04 18:52:00,
2013-05-04 11:57:00,72.0,36.1,30.21,ESE,108,6.0,12.0,27,0.00,,,0.00,838.0,meteohub,2013-05-04 18:57:00,
2013-05-04 12:02:00,72.3,37.4,30.21,East,90,7.0,12.0,28,0.00,,,0.00,840.0,meteohub,2013-05-04 19:02:00,
2013-05-04 12:07:00,72.7,37.8,30.21,ENE,78,7.0,12.0,28,0.00,,,0.00,846.0,meteohub,2013-05-04 19:07:00,
2013-05-04 12:12:00,73.0,35.1,30.20,ENE,58,9.0,12.0,25,0.00,,,0.00,849.0,meteohub,2013-05-04 19:12:00,
2013-05-04 12:17:00,73.2,37.2,30.20,ENE,70,7.0,13.0,27,0.00,,,0.00,853.0,meteohub,2013-05-04 19:17:00,
2013-05-04 12:22:00,73.8,35.8,30.19,ENE,73,4.0,13.0,25,0.00,,,0.00,856.0,meteohub,2013-05-04 19:22:00,
2013-05-04 12:27:00,73.9,36.0,30.19,East,82,7.0,13.0,25,0.00,,,0.00,858.0,meteohub,2013-05-04 19:27:00,
2013-05-04 12:32:00,74.7,35.4,30.19,ESE,114,6.0,11.0,24,0.00,,,0.00,860.0,meteohub,2013-05-04 19:32:00,
2013-05-04 12:37:00,74.8,36.7,30.18,ENE,73,1.0,11.0,25,0.00,,,0.00,861.0,meteohub,2013-05-04 19:37:00,
2013-05-04 12:42:00,75.4,37.0,30.18,East,93,5.0,11.0,25,0.00,,,0.00,863.0,meteohub,2013-05-04 19:42:00,
2013-05-04 12:47:00,75.6,37.2,30.17,ENE,65,10.0,11.0,25,0.00,,,0.00,865.0,meteohub,2013-05-04 19:47:00,
2013-05-04 12:52:00,75.6,38.3,30.17,East,82,8.0,12.0,26,0.00,,,0.00,865.0,meteohub,2013-05-04 19:52:00,
2013-05-04 12:57:00,75.9,36.5,30.17,East,84,1.0,12.0,24,0.00,,,0.00,867.0,meteohub,2013-05-04 19:57:00,
2013-05-04 13:02:00,76.3,35.8,30.17,ENE,78,2.0,13.0,23,0.00,,,0.00,867.0,meteohub,2013-05-04 20:02:00,
2013-05-04 13:07:00,76.5,36.0,30.16,ENE,70,6.0,13.0,23,0.00,,,0.00,865.0,meteohub,2013-05-04 20:07:00,
2013-05-04 13:12:00,76.6,36.1,30.16,ESE,105,9.0,11.0,23,0.00,,,0.00,867.0,meteohub,2013-05-04 20:12:00,
2013-05-04 13:17:00,76.5,39.0,30.15,ESE,119,5.0,13.0,26,0.00,,,0.00,865.0,meteohub,2013-05-04 20:17:00,
2013-05-04 13:22:00,77.0,36.3,30.15,ESE,103,6.0,13.0,23,0.00,,,0.00,865.0,meteohub,2013-05-04 20:22:00,
2013-05-04 13:27:00,77.2,35.4,30.14,South,175,5.0,13.0,22,0.00,,,0.00,865.0,meteohub,2013-05-04 20:27:00,
2013-05-04 13:32:00,77.2,38.7,30.14,ESE,123,10.0,12.0,25,0.00,,,0.00,861.0,meteohub,2013-05-04 20:32:00,
2013-05-04 13:37:00,77.2,37.6,30.14,ENE,77,5.0,12.0,24,0.00,,,0.00,858.0,meteohub,2013-05-04 20:37:00,
2013-05-04 13:42:00,77.4,35.6,30.13,ESE,109,9.0,12.0,22,0.00,,,0.00,856.0,meteohub,2013-05-04 20:42:00,
2013-05-04 13:47:00,77.7,39.0,30.13,ENE,58,4.0,13.0,25,0.00,,,0.00,853.0,meteohub,2013-05-04 20:47:00,
2013-05-04 13:52:00,78.1,36.1,30.13,SSE,152,3.0,13.0,22,0.00,,,0.00,851.0,meteohub,2013-05-04 20:52:00,
2013-05-04 13:57:00,78.8,37.9,30.13,ENE,63,0.0,13.0,23,0.00,,,0.00,846.0,meteohub,2013-05-04 20:57:00,
2013-05-04 14:02:00,79.5,37.4,30.13,West,277,7.0,10.0,22,0.00,,,0.00,844.0,meteohub,2013-05-04 21:02:00,
2013-05-04 14:07:00,79.5,37.4,30.12,ESE,106,4.0,7.0,22,0.00,,,0.00,838.0,meteohub,2013-05-04 21:07:00,
2013-05-04 14:12:00,79.0,39.2,30.12,ENE,76,5.0,8.0,24,0.00,,,0.00,833.0,meteohub,2013-05-04 21:12:00,
2013-05-04 14:17:00,79.0,37.9,30.12,East,82,7.0,10.0,23,0.00,,,0.00,830.0,meteohub,2013-05-04 21:17:00,
2013-05-04 14:22:00,79.0,39.2,30.12,ENE,76,7.0,10.0,24,0.00,,,0.00,824.0,meteohub,2013-05-04 21:22:00,
2013-05-04 14:27:00,79.0,36.9,30.12,East,93,3.0,10.0,22,0.00,,,0.00,819.0,meteohub,2013-05-04 21:27:00,
2013-05-04 14:32:00,79.0,35.8,30.11,SW,221,3.0,12.0,21,0.00,,,0.00,814.0,meteohub,2013-05-04 21:32:00,
2013-05-04 14:37:00,79.9,38.8,30.12,NE,47,4.0,12.0,23,0.00,,,0.00,807.0,meteohub,2013-05-04 21:37:00,
2013-05-04 14:42:00,80.8,37.2,30.11,West,271,1.0,12.0,21,0.00,,,0.00,800.0,meteohub,2013-05-04 21:42:00,
2013-05-04 14:47:00,80.4,39.2,30.11,West,263,5.0,6.0,23,0.00,,,0.00,793.0,meteohub,2013-05-04 21:47:00,
2013-05-04 14:52:00,80.2,37.9,30.10,West,267,0.0,9.0,22,0.00,,,0.00,784.0,meteohub,2013-05-04 21:52:00,
2013-05-04 14:57:00,80.4,38.1,30.11,West,276,9.0,9.0,22,0.00,,,0.00,779.0,meteohub,2013-05-04 21:57:00,
2013-05-04 15:02:00,81.0,36.1,30.10,SW,227,4.0,11.0,20,0.00,,,0.00,772.0,meteohub,2013-05-04 22:02:00,
2013-05-04 15:07:00,80.4,38.1,30.10,SW,229,4.0,11.0,22,0.00,,,0.00,763.0,meteohub,2013-05-04 22:07:00,
2013-05-04 15:12:00,80.1,36.7,30.09,ESE,117,2.0,11.0,21,0.00,,,0.00,756.0,meteohub,2013-05-04 22:12:00,
2013-05-04 15:17:00,81.0,38.5,30.09,WNW,288,4.0,8.0,22,0.00,,,0.00,747.0,meteohub,2013-05-04 22:17:00,
2013-05-04 15:22:00,81.9,35.6,30.09,West,271,2.0,7.0,19,0.00,,,0.00,738.0,meteohub,2013-05-04 22:22:00,
2013-05-04 15:27:00,81.7,36.7,30.09,West,264,0.0,9.0,20,0.00,,,0.00,731.0,meteohub,2013-05-04 22:27:00,
2013-05-04 15:32:00,82.2,37.2,30.08,West,278,6.0,9.0,20,0.00,,,0.00,724.0,meteohub,2013-05-04 22:32:00,
2013-05-04 15:37:00,82.0,37.0,30.08,SW,219,4.0,7.0,20,0.00,,,0.00,719.0,meteohub,2013-05-04 22:37:00,
2013-05-04 15:42:00,81.3,38.8,30.08,SW,217,0.0,7.0,22,0.00,,,0.00,708.0,meteohub,2013-05-04 22:42:00,
2013-05-04 15:47:00,81.3,37.6,30.08,SW,231,3.0,7.0,21,0.00,,,0.00,694.0,meteohub,2013-05-04 22:47:00,
2013-05-04 15:52:00,81.7,37.9,30.07,West,274,12.0,12.0,21,0.00,,,0.00,664.0,meteohub,2013-05-04 22:52:00,
2013-05-04 15:57:00,81.9,38.1,30.06,West,267,6.0,17.0,21,0.00,,,0.00,670.0,meteohub,2013-05-04 22:57:00,
2013-05-04 16:02:00,82.0,37.0,30.06,West,270,7.0,17.0,20,0.00,,,0.00,657.0,meteohub,2013-05-04 23:02:00,
2013-05-04 16:07:00,81.9,38.1,30.06,West,267,11.0,17.0,21,0.00,,,0.00,649.0,meteohub,2013-05-04 23:07:00,
2013-05-04 16:12:00,82.0,35.8,30.06,SW,235,12.0,15.0,19,0.00,,,0.00,635.0,meteohub,2013-05-04 23:12:00,
2013-05-04 16:17:00,81.7,39.2,30.06,West,279,5.0,15.0,22,0.00,,,0.00,622.0,meteohub,2013-05-04 23:17:00,
2013-05-04 16:22:00,81.7,37.9,30.06,West,274,12.0,15.0,21,0.00,,,0.00,612.0,meteohub,2013-05-04 23:22:00,
2013-05-04 16:27:00,81.7,36.7,30.05,West,273,11.0,15.0,20,0.00,,,0.00,598.0,meteohub,2013-05-04 23:27:00,
2013-05-04 16:32:00,81.3,36.5,30.05,West,264,5.0,16.0,20,0.00,,,0.00,587.0,meteohub,2013-05-04 23:32:00,
2013-05-04 16:37:00,81.3,37.6,30.05,West,279,9.0,16.0,21,0.00,,,0.00,570.0,meteohub,2013-05-04 23:37:00,
2013-05-04 16:42:00,81.3,36.5,30.05,West,279,10.0,16.0,20,0.00,,,0.00,563.0,meteohub,2013-05-04 23:42:00,
2013-05-04 16:47:00,81.3,37.6,30.05,West,279,12.0,16.0,21,0.00,,,0.00,550.0,meteohub,2013-05-04 23:47:00,
2013-05-04 16:52:00,81.3,36.5,30.04,SW,229,4.0,16.0,20,0.00,,,0.00,534.0,meteohub,2013-05-04 23:52:00,
2013-05-04 16:57:00,81.1,37.6,30.04,NW,315,4.0,16.0,21,0.00,,,0.00,526.0,meteohub,2013-05-04 23:57:00,
2013-05-04 17:02:00,81.1,38.7,30.04,WNW,286,7.0,17.0,22,0.00,,,0.00,515.0,meteohub,2013-05-05 00:02:00,
2013-05-04 17:07:00,81.3,37.6,30.04,West,281,2.0,17.0,21,0.00,,,0.00,499.0,meteohub,2013-05-05 00:07:00,
2013-05-04 17:12:00,81.1,37.6,30.04,WNW,297,6.0,17.0,21,0.00,,,0.00,466.0,meteohub,2013-05-05 00:12:00,
2013-05-04 17:17:00,81.1,38.7,30.04,WNW,294,6.0,15.0,22,0.00,,,0.00,471.0,meteohub,2013-05-05 00:17:00,
2013-05-04 17:22:00,81.0,38.5,30.03,West,280,9.0,15.0,22,0.00,,,0.00,459.0,meteohub,2013-05-05 00:22:00,
2013-05-04 17:27:00,80.8,38.5,30.03,WNW,283,8.0,15.0,22,0.00,,,0.00,446.0,meteohub,2013-05-05 00:27:00,
2013-05-04 17:32:00,80.4,38.1,30.03,WNW,286,6.0,15.0,22,0.00,,,0.00,432.0,meteohub,2013-05-05 00:32:00,
2013-05-04 17:37:00,80.2,40.1,30.03,WNW,285,1.0,14.0,24,0.00,,,0.00,403.0,meteohub,2013-05-05 00:37:00,
2013-05-04 17:42:00,80.1,40.1,30.02,West,281,0.0,14.0,24,0.00,,,0.00,399.0,meteohub,2013-05-05 00:42:00,
2013-05-04 17:47:00,79.9,41.9,30.02,North,5,3.0,12.0,26,0.00,,,0.00,380.0,meteohub,2013-05-05 00:47:00,
2013-05-04 17:52:00,79.2,43.2,30.02,NW,312,0.0,8.0,28,0.00,,,0.00,360.0,meteohub,2013-05-05 00:52:00,
2013-05-04 17:57:00,78.6,42.8,30.02,NW,319,0.0,8.0,28,0.00,,,0.00,357.0,meteohub,2013-05-05 00:57:00,
2013-05-04 18:02:00,78.4,41.7,30.02,ENE,70,1.0,4.0,27,0.00,,,0.00,341.0,meteohub,2013-05-05 01:02:00,
2013-05-04 18:07:00,78.1,43.2,30.02,SSW,211,3.0,3.0,29,0.00,,,0.00,318.0,meteohub,2013-05-05 01:07:00,
2013-05-04 18:12:00,77.4,42.6,30.02,SE,134,1.0,3.0,29,0.00,,,0.00,316.0,meteohub,2013-05-05 01:12:00,
2013-05-04 18:17:00,77.2,44.2,30.02,SE,134,1.0,3.0,31,0.00,,,0.00,304.0,meteohub,2013-05-05 01:17:00,
2013-05-04 18:22:00,77.0,45.7,30.02,SE,134,0.0,3.0,33,0.00,,,0.00,285.0,meteohub,2013-05-05 01:22:00,
2013-05-04 18:27:00,76.8,46.4,30.02,SE,134,0.0,1.0,34,0.00,,,0.00,274.0,meteohub,2013-05-05 01:27:00,
2013-05-04 18:32:00,76.3,42.6,30.02,SE,134,1.0,1.0,30,0.00,,,0.00,262.0,meteohub,2013-05-05 01:32:00,
2013-05-04 18:37:00,75.7,45.3,30.02,SE,134,0.0,2.0,34,0.00,,,0.00,248.0,meteohub,2013-05-05 01:37:00,
2013-05-04 18:42:00,74.7,44.4,30.02,SE,134,0.0,2.0,34,0.00,,,0.00,234.0,meteohub,2013-05-05 01:42:00,
2013-05-04 18:47:00,74.1,47.7,30.02,SE,134,0.0,3.0,39,0.00,,,0.00,132.0,meteohub,2013-05-05 01:47:00,
2013-05-04 18:52:00,74.1,48.2,30.02,SE,134,0.0,3.0,40,0.00,,,0.00,32.0,meteohub,2013-05-05 01:52:00,
2013-05-04 18:57:00,73.9,48.0,30.02,SE,134,0.0,3.0,40,0.00,,,0.00,30.0,meteohub,2013-05-05 01:57:00,
2013-05-04 19:02:00,73.2,47.5,30.02,SE,134,0.0,2.0,40,0.00,,,0.00,26.0,meteohub,2013-05-05 02:02:00,
2013-05-04 19:07:00,72.5,47.5,30.02,SE,136,0.0,2.0,41,0.00,,,0.00,25.0,meteohub,2013-05-05 02:07:00,
2013-05-04 19:12:00,71.6,47.8,30.02,SE,136,0.0,3.0,43,0.00,,,0.00,21.0,meteohub,2013-05-05 02:12:00,
2013-05-04 19:17:00,70.5,46.9,30.02,SE,136,1.0,3.0,43,0.00,,,0.00,21.0,meteohub,2013-05-05 02:17:00,
2013-05-04 19:22:00,69.6,47.3,30.02,SE,139,1.0,2.0,45,0.00,,,0.00,19.0,meteohub,2013-05-05 02:22:00,
2013-05-04 19:27:00,68.7,47.7,30.03,SE,139,0.0,2.0,47,0.00,,,0.00,18.0,meteohub,2013-05-05 02:27:00,
2013-05-04 19:32:00,68.2,47.7,30.03,SE,139,0.0,2.0,48,0.00,,,0.00,16.0,meteohub,2013-05-05 02:32:00,
2013-05-04 19:37:00,67.5,48.7,30.03,SE,139,0.0,2.0,51,0.00,,,0.00,14.0,meteohub,2013-05-05 02:37:00,
2013-05-04 19:42:00,66.6,47.8,30.04,SE,139,0.0,1.0,51,0.00,,,0.00,12.0,meteohub,2013-05-05 02:42:00,
2013-05-04 19:47:00,66.0,47.3,30.04,SE,139,0.0,2.0,51,0.00,,,0.00,12.0,meteohub,2013-05-05 02:47:00,
2013-05-04 19:52:00,65.5,48.9,30.04,SE,139,0.0,2.0,55,0.00,,,0.00,11.0,meteohub,2013-05-05 02:52:00,
2013-05-04 19:57:00,64.8,47.7,30.04,SE,139,0.0,2.0,54,0.00,,,0.00,9.0,meteohub,2013-05-05 02:57:00,
2013-05-04 20:02:00,64.2,47.7,30.04,SE,139,0.0,1.0,55,0.00,,,0.00,9.0,meteohub,2013-05-05 03:02:00,
2013-05-04 20:07:00,63.7,48.2,30.04,SE,139,0.0,1.0,57,0.00,,,0.00,9.0,meteohub,2013-05-05 03:07:00,
2013-05-04 20:12:00,63.1,47.7,30.04,SE,139,0.0,0.0,57,0.00,,,0.00,7.0,meteohub,2013-05-05 03:12:00,
2013-05-04 20:17:00,63.0,48.4,30.05,SE,139,0.0,1.0,59,0.00,,,0.00,5.0,meteohub,2013-05-05 03:17:00,
2013-05-04 20:22:00,62.4,47.8,30.05,SE,139,0.0,1.0,59,0.00,,,0.00,0.0,meteohub,2013-05-05 03:22:00,
2013-05-04 20:27:00,62.1,47.1,30.05,SE,139,0.0,1.0,58,0.00,,,0.00,0.0,meteohub,2013-05-05 03:27:00,
2013-05-04 20:32:00,61.5,46.6,30.05,SE,139,0.0,1.0,58,0.00,,,0.00,0.0,meteohub,2013-05-05 03:32:00,
2013-05-04 20:37:00,61.2,47.1,30.05,SE,139,0.0,3.0,60,0.00,,,0.00,0.0,meteohub,2013-05-05 03:37:00,
2013-05-04 20:42:00,60.6,47.1,30.05,SE,139,0.0,3.0,61,0.00,,,0.00,0.0,meteohub,2013-05-05 03:42:00,
2013-05-04 20:47:00,60.3,46.8,30.06,SE,139,0.0,3.0,61,0.00,,,0.00,0.0,meteohub,2013-05-05 03:47:00,
2013-05-04 20:52:00,59.7,46.8,30.06,SE,139,0.0,3.0,62,0.00,,,0.00,0.0,meteohub,2013-05-05 03:52:00,
2013-05-04 20:57:00,59.2,46.2,30.06,SE,139,0.0,3.0,62,0.00,,,0.00,0.0,meteohub,2013-05-05 03:57:00,
2013-05-04 21:01:00,59.0,46.4,30.06,SE,139,0.0,2.0,63,0.00,,,0.00,0.0,meteohub,2013-05-05 04:01:00,
2013-05-04 21:02:00,58.8,46.2,30.06,SE,139,0.0,2.0,63,0.00,,,0.00,0.0,meteohub,2013-05-05 04:02:00,
2013-05-04 21:05:00,58.6,46.6,30.06,SE,139,0.0,2.0,64,0.00,,,0.00,0.0,meteohub,2013-05-05 04:05:00,
2013-05-04 21:06:00,58.6,46.6,30.06,SE,139,0.0,2.0,64,0.00,,,0.00,0.0,meteohub,2013-05-05 04:06:00,
2013-05-04 21:11:00,58.5,46.4,30.07,SE,139,0.0,1.0,64,0.00,,,0.00,0.0,meteohub,2013-05-05 04:11:00,
2013-05-04 21:16:00,58.3,46.2,30.06,SE,139,1.0,1.0,64,0.00,,,0.00,0.0,meteohub,2013-05-05 04:16:00,
2013-05-04 21:21:00,57.7,46.9,30.07,SE,139,1.0,3.0,67,0.00,,,0.00,0.0,meteohub,2013-05-05 04:21:00,
2013-05-04 21:26:00,57.4,46.6,30.07,SE,139,1.0,3.0,67,0.00,,,0.00,0.0,meteohub,2013-05-05 04:26:00,
2013-05-04 21:31:00,57.0,46.6,30.07,SE,139,1.0,3.0,68,0.00,,,0.00,0.0,meteohub,2013-05-05 04:31:00,
2013-05-04 21:36:00,56.8,46.4,30.07,SE,139,0.0,2.0,68,0.00,,,0.00,0.0,meteohub,2013-05-05 04:36:00,
2013-05-04 21:41:00,56.7,46.2,30.07,SE,139,0.0,2.0,68,0.00,,,0.00,0.0,meteohub,2013-05-05 04:41:00,
2013-05-04 21:46:00,56.3,45.9,30.07,SE,139,1.0,2.0,68,0.00,,,0.00,0.0,meteohub,2013-05-05 04:46:00,
2013-05-04 21:51:00,55.9,45.9,30.07,SE,139,0.0,2.0,69,0.00,,,0.00,0.0,meteohub,2013-05-05 04:51:00,
2013-05-04 21:56:00,55.8,46.0,30.07,SE,139,1.0,2.0,70,0.00,,,0.00,0.0,meteohub,2013-05-05 04:56:00,
2013-05-04 22:01:00,55.6,46.0,30.07,SE,139,0.0,2.0,70,0.00,,,0.00,0.0,meteohub,2013-05-05 05:01:00,
2013-05-04 22:06:00,55.2,45.7,30.07,SE,139,0.0,1.0,70,0.00,,,0.00,0.0,meteohub,2013-05-05 05:06:00,
2013-05-04 22:11:00,54.9,45.7,30.07,SE,139,0.0,2.0,71,0.00,,,0.00,0.0,meteohub,2013-05-05 05:11:00,
2013-05-04 22:16:00,54.7,45.5,30.07,SE,139,0.0,2.0,71,0.00,,,0.00,0.0,meteohub,2013-05-05 05:16:00,
2013-05-04 22:21:00,54.5,45.3,30.07,SE,139,0.0,2.0,71,0.00,,,0.00,0.0,meteohub,2013-05-05 05:21:00,
2013-05-04 22:26:00,54.1,45.3,30.07,SE,139,1.0,2.0,72,0.00,,,0.00,0.0,meteohub,2013-05-05 05:26:00,
2013-05-04 22:31:00,54.0,45.1,30.07,SE,139,1.0,2.0,72,0.00,,,0.00,0.0,meteohub,2013-05-05 05:31:00,
2013-05-04 22:36:00,53.8,45.3,30.08,SE,139,0.0,2.0,73,0.00,,,0.00,0.0,meteohub,2013-05-05 05:36:00,
2013-05-04 22:41:00,53.2,45.1,30.07,SE,139,1.0,4.0,74,0.00,,,0.00,0.0,meteohub,2013-05-05 05:41:00,
2013-05-04 22:46:00,53.1,45.3,30.08,SE,139,0.0,4.0,75,0.00,,,0.00,0.0,meteohub,2013-05-05 05:46:00,
2013-05-04 22:51:00,52.9,44.8,30.08,SE,139,0.0,2.0,74,0.00,,,0.00,0.0,meteohub,2013-05-05 05:51:00,
2013-05-04 22:56:00,52.9,44.8,30.07,SE,139,0.0,4.0,74,0.00,,,0.00,0.0,meteohub,2013-05-05 05:56:00,
2013-05-04 23:01:00,52.5,44.8,30.08,SE,139,0.0,4.0,75,0.00,,,0.00,0.0,meteohub,2013-05-05 06:01:00,
2013-05-04 23:06:00,52.3,44.6,30.07,WSW,252,0.0,5.0,75,0.00,,,0.00,0.0,meteohub,2013-05-05 06:06:00,
2013-05-04 23:11:00,52.3,45.0,30.08,WSW,252,3.0,7.0,76,0.00,,,0.00,0.0,meteohub,2013-05-05 06:11:00,
2013-05-04 23:16:00,52.2,44.4,30.08,WSW,252,1.0,7.0,75,0.00,,,0.00,0.0,meteohub,2013-05-05 06:16:00,
2013-05-04 23:21:00,52.0,45.0,30.08,WSW,258,0.0,4.0,77,0.00,,,0.00,0.0,meteohub,2013-05-05 06:21:00,
2013-05-04 23:26:00,52.0,44.6,30.08,West,279,0.0,4.0,76,0.00,,,0.00,0.0,meteohub,2013-05-05 06:26:00,
2013-05-04 23:31:00,51.6,44.6,30.08,West,279,3.0,5.0,77,0.00,,,0.00,0.0,meteohub,2013-05-05 06:31:00,
2013-05-04 23:36:00,51.6,43.9,30.08,NW,311,2.0,5.0,75,0.00,,,0.00,0.0,meteohub,2013-05-05 06:36:00,
2013-05-04 23:42:00,51.6,43.9,30.08,West,273,2.0,4.0,75,0.00,,,0.00,0.0,meteohub,2013-05-05 06:42:00,
2013-05-04 23:47:00,52.0,43.9,30.08,WNW,285,0.0,6.0,74,0.00,,,0.00,0.0,meteohub,2013-05-05 06:47:00,
2013-05-04 23:52:00,52.2,44.1,30.08,WNW,296,6.0,7.0,74,0.00,,,0.00,0.0,meteohub,2013-05-05 06:52:00,
2013-05-04 23:57:00,52.5,41.9,30.08,SE,125,6.0,7.0,67,0.00,,,0.00,0.0,meteohub,2013-05-05 06:57:00,